Arcadia, Nebraska
Current Conditions -  °F | °C
As of 11:53 PM on Friday 19 Dec 2014 (Local Time) from KBBW Reporting Station
Clear Clear  
Wind Chill: -7°   Ceiling: Unl
Heat Index: -3°   Visibility: 10mi
Dew Point: -5°   Wind: 8mph
Humidity: 85%   Direction: 260°W
Pressure: 30"   Gusts: NA
Location:  41.42°N, 99.13°W
Report Text: KBBW 200553Z AUTO 26007KT 10SM CLR M03/M05 A3000 RMK AO2 SLP185 I6000 T10281050 11011 21061 400221061 53002
Loading
Personal Weather Stations






























Interactive Weather Map New forecast layout! Learn more

10-Day Weather Forecast

Advertisements
Track Severe Weather on mobile